createdAt,value
2023-01-22T00:02:03.822Z,99114.69
2023-01-22T00:04:33.329Z,99112.75
2023-01-22T00:07:02.804Z,99110.53
2023-01-22T00:09:32.475Z,99112.91
2023-01-22T00:12:01.446Z,99107.19
2023-01-22T00:14:31.541Z,99103.66
2023-01-22T00:17:02.227Z,99108.81
2023-01-22T00:19:31.888Z,99106.22
2023-01-22T00:22:00.431Z,99104.59
2023-01-22T00:24:29.893Z,99097.81
2023-01-22T00:26:59.806Z,99095.22
2023-01-22T00:29:29.243Z,99094.31
2023-01-22T00:31:57.767Z,99099.47
2023-01-22T00:34:28.774Z,99093.50
2023-01-22T00:36:57.696Z,99099.47
2023-01-22T00:39:27.331Z,99099.53
2023-01-22T00:41:56.829Z,99090.09
2023-01-22T00:44:26.293Z,99089.47
2023-01-22T00:46:56.233Z,99091.91
2023-01-22T00:49:27.048Z,99087.53
2023-01-22T00:51:56.510Z,99079.06
2023-01-22T00:54:25.999Z,99080.63
2023-01-22T00:56:54.715Z,99078.97
2023-01-22T00:59:24.114Z,99088.34
2023-01-22T01:01:53.016Z,99082.84
2023-01-22T01:04:23.421Z,99086.88
2023-01-22T01:06:54.272Z,99082.56
2023-01-22T01:09:24.859Z,99092.66
2023-01-22T01:11:54.324Z,99084.84
2023-01-22T01:14:23.271Z,99085.38
2023-01-22T01:16:53.032Z,99084.56
2023-01-22T01:19:21.783Z,99083.72
2023-01-22T01:21:53.253Z,99084.66
2023-01-22T01:24:22.626Z,99085.47
2023-01-22T01:26:51.502Z,99073.56
2023-01-22T01:29:20.929Z,99075.19
2023-01-22T01:31:53.447Z,99082.63
2023-01-22T01:34:25.996Z,99070.06
2023-01-22T01:36:58.033Z,99075.00
2023-01-22T01:39:27.022Z,99069.97
2023-01-22T01:41:56.935Z,99068.22
2023-01-22T01:44:27.403Z,99080.13
2023-01-22T01:47:05.964Z,99069.97
2023-01-22T01:49:45.931Z,99065.31
2023-01-22T01:52:18.097Z,99069.53
2023-01-22T01:54:51.745Z,99075.59
2023-01-22T01:57:29.407Z,99070.16
2023-01-22T02:00:00.851Z,99068.22
2023-01-22T02:02:29.845Z,99070.88
2023-01-22T02:05:00.239Z,99074.28
2023-01-22T02:07:31.865Z,99076.84
2023-01-22T02:10:01.157Z,99068.22
2023-01-22T02:12:31.945Z,99068.41
2023-01-22T02:15:04.632Z,99067.28
2023-01-22T02:17:34.044Z,99067.19
2023-01-22T02:20:04.812Z,99084.28
2023-01-22T02:22:39.988Z,99077.47
2023-01-22T02:25:11.996Z,99068.22
2023-01-22T02:27:41.507Z,99076.66
2023-01-22T02:30:14.168Z,99073.06
2023-01-22T02:32:44.001Z,99068.75
2023-01-22T02:35:13.519Z,99069.84
2023-01-22T02:37:44.262Z,99076.47
2023-01-22T02:40:16.833Z,99068.09
2023-01-22T02:42:47.047Z,99070.88
2023-01-22T02:45:17.709Z,99060.59
2023-01-22T02:47:48.167Z,99067.19
2023-01-22T02:50:19.156Z,99061.16
2023-01-22T02:52:50.680Z,99063.81
2023-01-22T02:55:21.886Z,99066.38
2023-01-22T02:57:51.273Z,99052.69
2023-01-22T03:00:23.315Z,99054.25
2023-01-22T03:02:53.737Z,99062.69
2023-01-22T03:05:23.196Z,99056.09
2023-01-22T03:07:53.940Z,99056.19
2023-01-22T03:10:23.575Z,99053.72
2023-01-22T03:13:10.586Z,99057.94
2023-01-22T03:15:58.089Z,99056.00
2023-01-22T03:18:44.067Z,99051.56
2023-01-22T03:21:19.394Z,99047.25
2023-01-22T03:23:52.564Z,99054.16
2023-01-22T03:26:24.482Z,99050.66
2023-01-22T03:28:54.010Z,99045.81
2023-01-22T03:31:24.008Z,99043.78
2023-01-22T03:33:54.212Z,99051.28
2023-01-22T03:36:24.238Z,99049.44
2023-01-22T03:38:55.589Z,99063.75
2023-01-22T03:41:26.039Z,99054.38
2023-01-22T03:43:58.960Z,99055.13
2023-01-22T03:46:28.752Z,99061.19
2023-01-22T03:48:59.061Z,99058.63
2023-01-22T03:51:29.525Z,99059.53
2023-01-22T03:54:01.280Z,99055.31
2023-01-22T03:56:32.348Z,99055.97
2023-01-22T03:59:01.540Z,99054.09
2023-01-22T04:01:31.444Z,99055.84
2023-01-22T04:04:01.619Z,99049.06
2023-01-22T04:06:32.596Z,99047.94
2023-01-22T04:09:02.866Z,99051.44
2023-01-22T04:11:32.350Z,99046.38
2023-01-22T04:14:01.279Z,99052.16
2023-01-22T04:16:31.108Z,99048.13
2023-01-22T04:19:00.983Z,99047.94
2023-01-22T04:21:30.423Z,99047.00
2023-01-22T04:24:00.300Z,99042.69
2023-01-22T04:26:31.555Z,99053.91
2023-01-22T04:29:01.396Z,99047.72
2023-01-22T04:31:31.924Z,99050.22
2023-01-22T04:34:01.856Z,99051.25
2023-01-22T04:36:32.030Z,99057.38
2023-01-22T04:39:01.331Z,99053.81
2023-01-22T04:41:32.697Z,99045.16
2023-01-22T04:44:02.726Z,99052.88
2023-01-22T04:46:32.232Z,99042.59
2023-01-22T04:49:03.189Z,99046.09
2023-01-22T04:51:33.188Z,99055.44
2023-01-22T04:54:02.648Z,99046.09
2023-01-22T04:56:32.991Z,99046.63
2023-01-22T04:59:03.474Z,99045.91
2023-01-22T05:01:33.930Z,99045.06
2023-01-22T05:04:04.018Z,99047.44
2023-01-22T05:06:33.058Z,99043.34
2023-01-22T05:09:02.643Z,99051.97
2023-01-22T05:11:34.644Z,99050.22
2023-01-22T05:14:05.214Z,99049.50
2023-01-22T05:16:33.640Z,99053.06
2023-01-22T05:19:04.671Z,99049.38
2023-01-22T05:21:35.661Z,99045.91
2023-01-22T05:24:06.314Z,99050.84
2023-01-22T05:26:37.172Z,99051.88
2023-01-22T05:29:07.032Z,99054.34
2023-01-22T05:31:36.414Z,99061.06
2023-01-22T05:34:05.817Z,99053.34
2023-01-22T05:36:35.067Z,99062.78
2023-01-22T05:39:05.152Z,99058.56
2023-01-22T05:41:35.422Z,99056.81
2023-01-22T05:44:05.458Z,99053.69
2023-01-22T05:46:35.551Z,99056.06
2023-01-22T05:49:04.943Z,99063.00
2023-01-22T05:51:34.689Z,99060.50
2023-01-22T05:54:05.233Z,99062.16
2023-01-22T05:56:36.312Z,99063.78
2023-01-22T05:59:07.431Z,99063.00
2023-01-22T06:01:39.142Z,99070.78
2023-01-22T06:04:08.407Z,99072.53
2023-01-22T06:06:38.789Z,99068.13
2023-01-22T06:09:08.676Z,99067.31
2023-01-22T06:11:39.798Z,99074.28
2023-01-22T06:14:10.601Z,99075.03
2023-01-22T06:16:41.082Z,99081.91
2023-01-22T06:19:10.346Z,99078.31
2023-01-22T06:21:40.374Z,99077.59
2023-01-22T06:24:10.861Z,99082.63
2023-01-22T06:26:44.228Z,99084.38
2023-01-22T06:29:14.461Z,99082.75
2023-01-22T06:31:44.545Z,99071.63
2023-01-22T06:34:17.197Z,99073.28
2023-01-22T06:36:47.621Z,99067.94
2023-01-22T06:39:17.907Z,99068.13
2023-01-22T06:41:49.738Z,99077.59
2023-01-22T06:44:20.365Z,99079.97
2023-01-22T06:46:50.776Z,99073.09
2023-01-22T06:49:20.944Z,99081.63
2023-01-22T06:51:50.449Z,99084.00
2023-01-22T06:54:20.400Z,99089.97
2023-01-22T06:56:50.916Z,99087.47
2023-01-22T06:59:20.108Z,99092.00
2023-01-22T07:01:50.070Z,99104.78
2023-01-22T07:04:19.533Z,99096.44
2023-01-22T07:06:48.289Z,99101.47
2023-01-22T07:09:16.723Z,99102.19
2023-01-22T07:11:46.612Z,99101.75
2023-01-22T07:14:21.354Z,99105.78
2023-01-22T07:16:58.893Z,99110.91
2023-01-22T07:19:29.312Z,99109.28
2023-01-22T07:21:59.329Z,99113.41
2023-01-22T07:24:29.927Z,99114.31
2023-01-22T07:26:59.417Z,99121.84
2023-01-22T07:29:32.608Z,99118.44
2023-01-22T07:32:04.240Z,99123.56
2023-01-22T07:34:33.760Z,99127.72
2023-01-22T07:37:04.362Z,99131.41
2023-01-22T07:39:34.327Z,99135.53
2023-01-22T07:42:02.740Z,99143.16
2023-01-22T07:44:34.135Z,99142.22
2023-01-22T07:47:03.523Z,99141.50
2023-01-22T07:49:33.072Z,99146.56
2023-01-22T07:52:02.715Z,99150.69
2023-01-22T07:54:33.785Z,99151.50
2023-01-22T07:57:04.974Z,99146.16
2023-01-22T07:59:37.244Z,99148.00
2023-01-22T08:02:07.688Z,99152.97
2023-01-22T08:04:37.642Z,99142.56
2023-01-22T08:07:07.563Z,99151.31
2023-01-22T08:09:38.632Z,99153.78
2023-01-22T08:12:09.127Z,99155.34
2023-01-22T08:14:39.884Z,99157.72
2023-01-22T08:17:09.373Z,99150.41
2023-01-22T08:19:39.810Z,99163.06
2023-01-22T08:22:09.316Z,99162.13
2023-01-22T08:24:38.281Z,99162.03
2023-01-22T08:27:09.322Z,99169.84
2023-01-22T08:29:40.121Z,99171.31
2023-01-22T08:32:10.190Z,99175.41
2023-01-22T08:34:39.229Z,99181.50
2023-01-22T08:37:08.648Z,99184.91
2023-01-22T08:39:37.650Z,99183.97
2023-01-22T08:42:08.849Z,99181.19
2023-01-22T08:44:40.381Z,99188.84
2023-01-22T08:47:11.541Z,99188.91
2023-01-22T08:49:41.599Z,99199.13
2023-01-22T08:52:11.991Z,99194.81
2023-01-22T08:54:42.023Z,99196.22
2023-01-22T08:57:10.829Z,99196.13
2023-01-22T08:59:44.884Z,99193.56
2023-01-22T09:02:14.804Z,99194.19
2023-01-22T09:04:44.908Z,99198.31
2023-01-22T09:07:13.763Z,99198.09
2023-01-22T09:09:43.185Z,99194.63
2023-01-22T09:12:12.239Z,99205.53
2023-01-22T09:14:43.589Z,99202.69
2023-01-22T09:17:12.029Z,99202.88
2023-01-22T09:19:41.940Z,99206.19
2023-01-22T09:22:11.638Z,99209.66
2023-01-22T09:24:41.050Z,99204.53
2023-01-22T09:27:12.097Z,99211.13
2023-01-22T09:29:43.550Z,99203.13
2023-01-22T09:32:12.838Z,99205.69
2023-01-22T09:34:43.188Z,99202.81
2023-01-22T09:37:15.749Z,99209.72
2023-01-22T09:39:45.729Z,99207.88
2023-01-22T09:42:22.004Z,99207.97
2023-01-22T09:44:59.627Z,99211.28
2023-01-22T09:47:36.751Z,99213.84
2023-01-22T09:50:19.856Z,99209.63
2023-01-22T09:52:53.388Z,99206.13
2023-01-22T09:55:25.438Z,99213.66
2023-01-22T09:57:58.592Z,99207.41
2023-01-22T10:00:41.468Z,99210.16
2023-01-22T10:03:23.001Z,99208.41
2023-01-22T10:05:57.729Z,99215.19
2023-01-22T10:08:34.416Z,99225.69
2023-01-22T10:11:04.469Z,99216.16
2023-01-22T10:13:37.274Z,99224.38
2023-01-22T10:16:09.301Z,99227.78
2023-01-22T10:18:46.067Z,99224.31
2023-01-22T10:21:22.631Z,99220.97
2023-01-22T10:23:53.244Z,99220.91
2023-01-22T10:26:27.837Z,99218.22
2023-01-22T10:29:00.381Z,99218.84
2023-01-22T10:31:33.955Z,99231.53
2023-01-22T10:34:11.709Z,99226.75
2023-01-22T10:36:40.711Z,99227.50
2023-01-22T10:39:14.398Z,99225.22
2023-01-22T10:41:46.169Z,99219.66
2023-01-22T10:44:26.855Z,99229.13
2023-01-22T10:47:09.795Z,99228.34
2023-01-22T10:49:38.788Z,99217.09
2023-01-22T10:52:24.489Z,99215.34
2023-01-22T10:54:59.385Z,99220.50
2023-01-22T10:57:34.007Z,99220.28
2023-01-22T11:00:21.944Z,99225.38
2023-01-22T11:02:53.316Z,99217.72
2023-01-22T11:05:25.927Z,99227.09
2023-01-22T11:07:59.622Z,99226.19
2023-01-22T11:10:41.341Z,99224.25
2023-01-22T11:13:17.410Z,99219.81
2023-01-22T11:16:00.279Z,99215.47
2023-01-22T11:18:40.441Z,99215.38
2023-01-22T11:21:17.603Z,99219.59
2023-01-22T11:23:57.588Z,99222.94
2023-01-22T11:26:45.350Z,99222.09
2023-01-22T11:29:38.928Z,99222.19
2023-01-22T11:32:48.802Z,99223.84
2023-01-22T11:35:30.971Z,99213.53
2023-01-22T11:38:18.636Z,99214.38
2023-01-22T11:41:37.880Z,99224.47
2023-01-22T11:44:42.160Z,99206.72
2023-01-22T11:47:54.011Z,99210.84
2023-01-22T11:50:32.446Z,99214.88
2023-01-22T11:53:24.607Z,99221.59
2023-01-22T11:56:19.774Z,99217.16
2023-01-22T11:58:57.827Z,99217.25
2023-01-22T12:01:45.950Z,99218.50
2023-01-22T12:05:05.036Z,99203.56
2023-01-22T12:08:04.033Z,99208.53
2023-01-22T12:11:11.424Z,99204.28
2023-01-22T12:14:21.881Z,99198.09
2023-01-22T12:17:02.349Z,99199.66
2023-01-22T12:20:36.646Z,99202.13
2023-01-22T12:23:16.042Z,99199.75
2023-01-22T12:25:54.718Z,99205.63
2023-01-22T12:28:31.416Z,99200.59
2023-01-22T12:31:06.671Z,99202.25
2023-01-22T12:33:42.909Z,99207.41
2023-01-22T12:36:17.433Z,99205.53
2023-01-22T12:38:56.273Z,99212.97
2023-01-22T12:41:48.687Z,99209.34
2023-01-22T12:44:34.352Z,99213.78
2023-01-22T12:47:14.845Z,99207.81
2023-01-22T12:49:50.130Z,99215.84
2023-01-22T12:52:39.092Z,99214.72
2023-01-22T12:55:31.264Z,99218.41
2023-01-22T12:58:01.196Z,99209.22
2023-01-22T13:00:35.841Z,99216.88
2023-01-22T13:03:30.952Z,99225.31
2023-01-22T13:06:02.465Z,99212.56
2023-01-22T13:08:44.386Z,99210.69
2023-01-22T13:11:28.696Z,99215.84
2023-01-22T13:14:15.032Z,99210.88
2023-01-22T13:16:56.259Z,99210.69
2023-01-22T13:19:27.426Z,99220.16
2023-01-22T13:22:01.706Z,99218.22
2023-01-22T13:24:31.419Z,99225.72
2023-01-22T13:27:04.417Z,99225.94
2023-01-22T13:29:38.124Z,99225.72
2023-01-22T13:32:19.347Z,99223.16
2023-01-22T13:34:48.601Z,99217.91
2023-01-22T13:37:24.295Z,99225.53
2023-01-22T13:39:53.598Z,99231.31
2023-01-22T13:42:27.918Z,99221.41
2023-01-22T13:44:58.695Z,99221.63
2023-01-22T13:47:34.111Z,99226.16
2023-01-22T13:50:05.644Z,99231.09
2023-01-22T13:52:35.715Z,99232.75
2023-01-22T13:55:12.796Z,99243.06
2023-01-22T13:57:48.972Z,99237.06
2023-01-22T14:00:28.280Z,99237.91
2023-01-22T14:02:57.285Z,99236.97
2023-01-22T14:05:29.842Z,99241.41
2023-01-22T14:08:08.596Z,99235.31
2023-01-22T14:10:38.598Z,99242.84
2023-01-22T14:13:11.537Z,99242.09
2023-01-22T14:15:43.169Z,99247.38
2023-01-22T14:18:16.189Z,99243.97
2023-01-22T14:20:47.598Z,99247.38
2023-01-22T14:23:18.358Z,99247.66
2023-01-22T14:25:50.763Z,99243.16
2023-01-22T14:28:24.783Z,99250.88
2023-01-22T14:30:55.272Z,99255.81
2023-01-22T14:33:26.420Z,99259.44
2023-01-22T14:35:56.413Z,99265.41
2023-01-22T14:38:27.677Z,99270.47
2023-01-22T14:40:57.469Z,99268.72
2023-01-22T14:43:29.081Z,99275.59
2023-01-22T14:45:58.748Z,99281.59
2023-01-22T14:48:28.888Z,99280.97
2023-01-22T14:50:59.461Z,99276.00
2023-01-22T14:53:30.215Z,99288.69
2023-01-22T14:56:00.231Z,99288.59
2023-01-22T14:58:30.538Z,99286.84
2023-01-22T15:01:00.196Z,99288.59
2023-01-22T15:03:31.769Z,99295.59
2023-01-22T15:06:01.894Z,99290.44
2023-01-22T15:08:30.925Z,99298.91
2023-01-22T15:11:02.325Z,99299.13
2023-01-22T15:13:34.227Z,99291.28
2023-01-22T15:16:08.977Z,99297.06
2023-01-22T15:18:40.383Z,99295.41
2023-01-22T15:21:09.578Z,99292.94
2023-01-22T15:23:39.090Z,99292.09
2023-01-22T15:26:24.393Z,99292.84
2023-01-22T15:28:56.115Z,99299.81
2023-01-22T15:31:25.787Z,99303.25
2023-01-22T15:33:54.356Z,99303.63
2023-01-22T15:36:23.315Z,99305.91
2023-01-22T15:38:53.198Z,99303.03
2023-01-22T15:41:26.738Z,99297.16
2023-01-22T15:44:01.723Z,99305.09
2023-01-22T15:46:33.755Z,99306.84
2023-01-22T15:49:03.972Z,99305.81
2023-01-22T15:51:33.537Z,99313.63
2023-01-22T15:54:05.852Z,99315.41
2023-01-22T15:56:38.712Z,99312.72
2023-01-22T15:59:09.347Z,99319.53
2023-01-22T16:01:38.447Z,99312.72
2023-01-22T16:04:10.299Z,99322.19
2023-01-22T16:06:41.263Z,99315.59
2023-01-22T16:09:10.932Z,99321.47
2023-01-22T16:11:39.910Z,99317.16
2023-01-22T16:14:09.920Z,99320.56
2023-01-22T16:16:39.725Z,99312.09
2023-01-22T16:19:13.364Z,99319.53
2023-01-22T16:21:43.402Z,99321.47
2023-01-22T16:24:13.507Z,99322.19
2023-01-22T16:26:43.521Z,99325.91
2023-01-22T16:29:14.129Z,99315.59
2023-01-22T16:31:43.871Z,99324.53
2023-01-22T16:34:15.282Z,99333.81
2023-01-22T16:36:45.387Z,99333.72
2023-01-22T16:39:20.408Z,99334.44
2023-01-22T16:41:52.017Z,99335.59
2023-01-22T16:44:26.817Z,99345.25
2023-01-22T16:47:00.486Z,99339.28
2023-01-22T16:49:33.630Z,99346.81
2023-01-22T16:52:20.854Z,99345.06
2023-01-22T16:54:52.401Z,99345.88
2023-01-22T16:57:21.551Z,99348.34
2023-01-22T16:59:52.997Z,99352.59
2023-01-22T17:02:21.955Z,99347.00
2023-01-22T17:04:50.449Z,99351.22
2023-01-22T17:07:32.703Z,99347.72
2023-01-22T17:10:03.092Z,99353.91
2023-01-22T17:12:32.230Z,99354.63
2023-01-22T17:15:02.635Z,99357.94
2023-01-22T17:17:31.608Z,99353.63
2023-01-22T17:20:01.482Z,99366.50
2023-01-22T17:22:33.631Z,99358.66
2023-01-22T17:25:03.191Z,99362.97
2023-01-22T17:27:32.831Z,99369.72
2023-01-22T17:30:05.710Z,99371.44
2023-01-22T17:32:35.354Z,99365.88
2023-01-22T17:35:05.823Z,99374.13
2023-01-22T17:37:35.789Z,99369.78
2023-01-22T17:40:06.451Z,99373.19
2023-01-22T17:42:35.751Z,99370.00
2023-01-22T17:45:07.444Z,99371.72
2023-01-22T17:47:37.594Z,99373.28
2023-01-22T17:50:12.831Z,99373.28
2023-01-22T17:52:41.480Z,99370.50
2023-01-22T17:55:13.040Z,99374.03
2023-01-22T17:57:42.425Z,99374.22
2023-01-22T18:00:17.616Z,99379.06
2023-01-22T18:02:47.174Z,99383.59
2023-01-22T18:05:16.736Z,99390.47
2023-01-22T18:07:46.613Z,99386.09
2023-01-22T18:10:17.430Z,99387.91
2023-01-22T18:12:49.150Z,99395.47
2023-01-22T18:15:20.575Z,99399.69
2023-01-22T18:17:51.109Z,99396.47
2023-01-22T18:20:21.635Z,99394.72
2023-01-22T18:22:51.978Z,99400.44
2023-01-22T18:25:21.349Z,99401.34
2023-01-22T18:27:50.319Z,99401.16
2023-01-22T18:30:21.729Z,99400.31
2023-01-22T18:32:51.767Z,99402.81
2023-01-22T18:35:21.894Z,99394.34
2023-01-22T18:37:57.950Z,99404.63
2023-01-22T18:40:30.058Z,99408.78
2023-01-22T18:42:59.648Z,99407.03
2023-01-22T18:45:30.506Z,99401.78
2023-01-22T18:47:59.463Z,99404.28
2023-01-22T18:50:30.101Z,99412.81
2023-01-22T18:53:00.760Z,99414.59
2023-01-22T18:55:32.718Z,99409.44
2023-01-22T18:58:06.530Z,99402.63
2023-01-22T19:00:39.000Z,99413.75
2023-01-22T19:03:09.869Z,99420.53
2023-01-22T19:05:41.275Z,99420.53
2023-01-22T19:08:11.358Z,99418.06
2023-01-22T19:10:40.745Z,99423.22
2023-01-22T19:13:09.240Z,99426.53
2023-01-22T19:15:40.579Z,99422.19
2023-01-22T19:18:10.281Z,99425.53
2023-01-22T19:20:40.456Z,99422.84
2023-01-22T19:23:11.358Z,99428.81
2023-01-22T19:25:40.335Z,99433.06
2023-01-22T19:28:10.401Z,99428.75
2023-01-22T19:30:41.567Z,99430.50
2023-01-22T19:33:11.482Z,99438.09
2023-01-22T19:35:46.710Z,99440.69
2023-01-22T19:38:17.060Z,99446.59
2023-01-22T19:40:46.899Z,99447.50
2023-01-22T19:43:16.284Z,99448.41
2023-01-22T19:45:48.951Z,99452.66
2023-01-22T19:48:18.409Z,99456.06
2023-01-22T19:50:47.571Z,99461.94
2023-01-22T19:53:17.640Z,99456.91
2023-01-22T19:55:47.577Z,99456.91
2023-01-22T19:58:17.089Z,99452.66
2023-01-22T20:00:46.911Z,99452.66
2023-01-22T20:03:16.526Z,99453.50
2023-01-22T20:05:46.123Z,99457.81
2023-01-22T20:08:15.937Z,99454.22
2023-01-22T20:10:45.127Z,99457.72
2023-01-22T20:13:14.789Z,99463.59
2023-01-22T20:15:44.658Z,99456.78
2023-01-22T20:18:15.550Z,99461.84
2023-01-22T20:20:52.255Z,99458.53
2023-01-22T20:23:22.077Z,99460.94
2023-01-22T20:25:51.472Z,99469.47
2023-01-22T20:28:22.252Z,99476.41
2023-01-22T20:31:00.764Z,99472.06
2023-01-22T20:33:33.000Z,99470.31
2023-01-22T20:36:06.348Z,99477.13
2023-01-22T20:38:35.495Z,99475.47
2023-01-22T20:41:09.801Z,99481.44
2023-01-22T20:43:40.889Z,99482.28
2023-01-22T20:46:14.012Z,99478.97
2023-01-22T20:48:45.793Z,99483.94
2023-01-22T20:51:18.871Z,99482.38
2023-01-22T20:53:50.145Z,99489.47
2023-01-22T20:56:23.295Z,99479.91
2023-01-22T20:58:58.165Z,99485.06
2023-01-22T21:01:28.624Z,99486.59
2023-01-22T21:04:00.844Z,99484.13
2023-01-22T21:06:34.080Z,99490.94
2023-01-22T21:09:05.229Z,99487.50
2023-01-22T21:11:37.676Z,99478.97
2023-01-22T21:14:08.661Z,99478.16
2023-01-22T21:16:41.489Z,99483.13
2023-01-22T21:19:18.621Z,99483.31
2023-01-22T21:21:49.370Z,99486.59
2023-01-22T21:24:18.383Z,99495.09
2023-01-22T21:26:48.399Z,99491.56
2023-01-22T21:29:21.474Z,99495.69
2023-01-22T21:31:53.446Z,99490.53
2023-01-22T21:34:27.330Z,99488.16
2023-01-22T21:36:59.577Z,99483.94
2023-01-22T21:39:31.641Z,99482.09
2023-01-22T21:42:14.651Z,99476.94
2023-01-22T21:45:01.491Z,99482.28
2023-01-22T21:47:32.987Z,99473.81
2023-01-22T21:50:04.493Z,99470.31
2023-01-22T21:52:34.204Z,99470.31
2023-01-22T21:55:03.257Z,99471.97
2023-01-22T21:57:33.322Z,99476.50
2023-01-22T22:00:02.676Z,99474.63
2023-01-22T22:02:31.729Z,99477.13
2023-01-22T22:05:01.573Z,99482.09
2023-01-22T22:07:32.538Z,99482.81
2023-01-22T22:10:03.622Z,99482.09
2023-01-22T22:12:33.825Z,99478.88
2023-01-22T22:15:05.076Z,99480.94
2023-01-22T22:17:35.587Z,99473.28
2023-01-22T22:20:06.605Z,99479.06
2023-01-22T22:22:37.648Z,99482.56
2023-01-22T22:25:07.830Z,99484.31
2023-01-22T22:27:37.795Z,99479.78
2023-01-22T22:30:11.684Z,99475.66
2023-01-22T22:32:41.110Z,99485.31
2023-01-22T22:35:11.588Z,99484.31
2023-01-22T22:37:41.842Z,99484.13
2023-01-22T22:40:14.254Z,99481.84
2023-01-22T22:42:44.824Z,99482.47
2023-01-22T22:45:14.270Z,99484.13
2023-01-22T22:47:44.367Z,99486.59
2023-01-22T22:50:14.377Z,99494.25
2023-01-22T22:52:45.333Z,99492.66
2023-01-22T22:55:14.595Z,99489.09
2023-01-22T22:57:45.284Z,99494.06
2023-01-22T23:00:17.774Z,99496.72
2023-01-22T23:02:47.363Z,99494.97
2023-01-22T23:05:17.087Z,99495.88
2023-01-22T23:07:47.523Z,99498.56
2023-01-22T23:10:29.670Z,99504.38
2023-01-22T23:13:00.857Z,99498.38
2023-01-22T23:15:33.258Z,99495.88
2023-01-22T23:18:03.347Z,99493.31
2023-01-22T23:20:31.816Z,99490.72
2023-01-22T23:23:02.831Z,99501.03
2023-01-22T23:25:32.400Z,99485.38
2023-01-22T23:28:01.338Z,99487.16
2023-01-22T23:30:30.949Z,99486.22
2023-01-22T23:33:01.679Z,99488.16
2023-01-22T23:35:32.398Z,99489.09
2023-01-22T23:38:04.020Z,99487.44
2023-01-22T23:40:33.786Z,99487.63
2023-01-22T23:43:03.536Z,99491.13
2023-01-22T23:45:33.273Z,99481.66
2023-01-22T23:48:02.895Z,99488.53
2023-01-22T23:50:32.951Z,99480.63
2023-01-22T23:53:04.305Z,99489.28
2023-01-22T23:55:33.791Z,99482.47
2023-01-22T23:58:04.563Z,99473.28
